KBLF/BLF METAR and TAF weather

Enter ICAO airport designator
Station Type Date Time Source
KBLF METAR 2021/07/24 18:52 UTC NOAA

KBLF 241852Z AUTO 25005KT 10SM SCT041 SCT050 27/17 A3016 RMK AO2 SLP173 T02670172


Station Type Date Time Source
KBLF Decoded METAR 2021/07/24 18:52 UTC NOAA

BLUEFIELD MERCER COUNTY AIRPORT , WV, United States (KBLF) 37-18N 081-12W 873M
Jul 24, 2021 - 02:52 PM EDT / 2021.07.24 1852 UTC
Wind: from the WSW (250 degrees) at 6 MPH (5 KT):0
Visibility: 10 mile(s):0
Sky conditions: partly cloudy
Temperature: 80.1 F (26.7 C)
Dew Point: 63.0 F (17.2 C)
Relative Humidity: 55%
Pressure (altimeter): 30.16 in. Hg (1021 hPa)
ob: KBLF 241852Z AUTO 25005KT 10SM SCT041 SCT050 27/17 A3016 RMK AO2 SLP173 T02670172
cycle: 19

Station Type Date Time Source
KBLF TAF 2021/07/24 18:24 UTC NOAA

TAF KBLF 241721Z 2418/2518 25008KT P6SM SCT040
FM250000 22004KT P6SM SCT030
FM250800 24003KT P6SM BKN015
FM251200 27005KT P6SM SCT030

Example: see airport list